sensor_id;sensor_type;location;lat;lon;timestamp;temperature;humidity
16102;DHT22;56411;52.964;10.540;2023-05-06T00:00:21;9.60;99.90
16102;DHT22;56411;52.964;10.540;2023-05-06T00:02:48;9.60;99.90
16102;DHT22;56411;52.964;10.540;2023-05-06T00:05:16;9.60;99.90
16102;DHT22;56411;52.964;10.540;2023-05-06T00:07:44;9.60;99.90
16102;DHT22;56411;52.964;10.540;2023-05-06T00:10:11;9.60;99.90
16102;DHT22;56411;52.964;10.540;2023-05-06T00:12:39;9.60;99.90
16102;DHT22;56411;52.964;10.540;2023-05-06T00:15:07;9.60;99.90
16102;DHT22;56411;52.964;10.540;2023-05-06T00:17:34;9.60;99.90
16102;DHT22;56411;52.964;10.540;2023-05-06T00:20:01;9.60;99.90
16102;DHT22;56411;52.964;10.540;2023-05-06T00:22:30;9.70;99.90
16102;DHT22;56411;52.964;10.540;2023-05-06T00:24:57;9.70;99.90
16102;DHT22;56411;52.964;10.540;2023-05-06T00:27:24;9.70;99.90
16102;DHT22;56411;52.964;10.540;2023-05-06T00:29:51;9.70;99.90
16102;DHT22;56411;52.964;10.540;2023-05-06T00:32:18;9.70;99.90
16102;DHT22;56411;52.964;10.540;2023-05-06T00:34:45;9.70;99.90
16102;DHT22;56411;52.964;10.540;2023-05-06T00:37:12;9.70;99.90
16102;DHT22;56411;52.964;10.540;2023-05-06T00:39:41;9.70;99.90
16102;DHT22;56411;52.964;10.540;2023-05-06T00:42:08;9.80;99.90
16102;DHT22;56411;52.964;10.540;2023-05-06T00:44:35;9.80;99.90
16102;DHT22;56411;52.964;10.540;2023-05-06T00:47:03;9.80;99.90
16102;DHT22;56411;52.964;10.540;2023-05-06T00:49:30;9.80;99.90
16102;DHT22;56411;52.964;10.540;2023-05-06T00:51:58;9.80;99.90
16102;DHT22;56411;52.964;10.540;2023-05-06T00:54:26;9.80;99.90
16102;DHT22;56411;52.964;10.540;2023-05-06T00:56:55;9.80;99.90
16102;DHT22;56411;52.964;10.540;2023-05-06T00:59:22;9.90;99.90
16102;DHT22;56411;52.964;10.540;2023-05-06T01:01:49;9.80;99.90
16102;DHT22;56411;52.964;10.540;2023-05-06T01:04:18;9.90;99.90
16102;DHT22;56411;52.964;10.540;2023-05-06T01:06:52;9.90;99.90
16102;DHT22;56411;52.964;10.540;2023-05-06T01:09:27;9.90;99.90
16102;DHT22;56411;52.964;10.540;2023-05-06T01:12:06;9.90;99.90
16102;DHT22;56411;52.964;10.540;2023-05-06T01:14:37;9.90;99.90
16102;DHT22;56411;52.964;10.540;2023-05-06T01:17:10;9.90;99.90
16102;DHT22;56411;52.964;10.540;2023-05-06T01:19:43;10.00;99.90
16102;DHT22;56411;52.964;10.540;2023-05-06T01:22:12;10.00;99.90
16102;DHT22;56411;52.964;10.540;2023-05-06T01:24:43;10.00;99.90
16102;DHT22;56411;52.964;10.540;2023-05-06T01:27:11;10.00;99.90
16102;DHT22;56411;52.964;10.540;2023-05-06T01:29:40;10.00;99.90
16102;DHT22;56411;52.964;10.540;2023-05-06T01:32:19;10.10;99.90
16102;DHT22;56411;52.964;10.540;2023-05-06T01:34:54;10.00;99.90
16102;DHT22;56411;52.964;10.540;2023-05-06T01:37:28;10.00;99.90
16102;DHT22;56411;52.964;10.540;2023-05-06T01:39:59;10.00;99.90
16102;DHT22;56411;52.964;10.540;2023-05-06T01:42:30;9.90;99.90
16102;DHT22;56411;52.964;10.540;2023-05-06T01:44:59;9.90;99.90
16102;DHT22;56411;52.964;10.540;2023-05-06T01:47:27;9.80;99.90
16102;DHT22;56411;52.964;10.540;2023-05-06T01:49:56;9.80;99.90
16102;DHT22;56411;52.964;10.540;2023-05-06T01:52:25;9.70;99.90
16102;DHT22;56411;52.964;10.540;2023-05-06T01:54:52;9.70;99.90
16102;DHT22;56411;52.964;10.540;2023-05-06T01:57:20;9.70;99.90
16102;DHT22;56411;52.964;10.540;2023-05-06T01:59:47;9.60;99.90
16102;DHT22;56411;52.964;10.540;2023-05-06T02:02:15;9.60;99.90
16102;DHT22;56411;52.964;10.540;2023-05-06T02:04:41;9.70;99.90
16102;DHT22;56411;52.964;10.540;2023-05-06T02:07:09;9.70;99.90
16102;DHT22;56411;52.964;10.540;2023-05-06T02:09:36;9.70;99.90
16102;DHT22;56411;52.964;10.540;2023-05-06T02:12:03;9.80;99.90
16102;DHT22;56411;52.964;10.540;2023-05-06T02:14:32;9.80;99.90
16102;DHT22;56411;52.964;10.540;2023-05-06T02:17:02;9.90;99.90
16102;DHT22;56411;52.964;10.540;2023-05-06T02:19:29;9.90;99.90
16102;DHT22;56411;52.964;10.540;2023-05-06T02:21:56;9.90;99.90
16102;DHT22;56411;52.964;10.540;2023-05-06T02:24:23;9.90;99.90
16102;DHT22;56411;52.964;10.540;2023-05-06T02:26:51;10.00;99.90
16102;DHT22;56411;52.964;10.540;2023-05-06T02:29:18;9.90;99.90
16102;DHT22;56411;52.964;10.540;2023-05-06T02:31:46;10.00;99.90
16102;DHT22;56411;52.964;10.540;2023-05-06T02:34:14;10.00;99.90
16102;DHT22;56411;52.964;10.540;2023-05-06T02:36:41;10.00;99.90
16102;DHT22;56411;52.964;10.540;2023-05-06T02:39:08;10.00;99.90
16102;DHT22;56411;52.964;10.540;2023-05-06T02:41:36;10.00;99.90
16102;DHT22;56411;52.964;10.540;2023-05-06T02:44:03;10.00;99.90
16102;DHT22;56411;52.964;10.540;2023-05-06T02:46:31;10.00;99.90
16102;DHT22;56411;52.964;10.540;2023-05-06T02:48:59;10.00;99.90
16102;DHT22;56411;52.964;10.540;2023-05-06T02:51:27;10.00;99.90
16102;DHT22;56411;52.964;10.540;2023-05-06T02:53:54;10.00;99.90
16102;DHT22;56411;52.964;10.540;2023-05-06T02:56:21;10.00;99.90
16102;DHT22;56411;52.964;10.540;2023-05-06T02:58:47;10.00;99.90
16102;DHT22;56411;52.964;10.540;2023-05-06T03:01:15;10.10;99.90
16102;DHT22;56411;52.964;10.540;2023-05-06T03:03:42;10.00;99.90
16102;DHT22;56411;52.964;10.540;2023-05-06T03:06:10;10.00;99.90
16102;DHT22;56411;52.964;10.540;2023-05-06T03:08:37;10.00;99.90
16102;DHT22;56411;52.964;10.540;2023-05-06T03:11:04;10.00;99.90
16102;DHT22;56411;52.964;10.540;2023-05-06T03:13:31;10.10;99.90
16102;DHT22;56411;52.964;10.540;2023-05-06T03:15:59;10.10;99.90
16102;DHT22;56411;52.964;10.540;2023-05-06T03:18:26;10.00;99.90
16102;DHT22;56411;52.964;10.540;2023-05-06T03:20:53;10.00;99.90
16102;DHT22;56411;52.964;10.540;2023-05-06T03:23:21;10.10;99.90
16102;DHT22;56411;52.964;10.540;2023-05-06T03:25:48;10.10;99.90
16102;DHT22;56411;52.964;10.540;2023-05-06T03:28:15;10.00;99.90
16102;DHT22;56411;52.964;10.540;2023-05-06T03:30:42;10.00;99.90
16102;DHT22;56411;52.964;10.540;2023-05-06T03:33:10;10.00;99.90
16102;DHT22;56411;52.964;10.540;2023-05-06T03:35:37;10.00;99.90
16102;DHT22;56411;52.964;10.540;2023-05-06T03:38:04;10.00;99.90
16102;DHT22;56411;52.964;10.540;2023-05-06T03:40:33;10.00;99.90
16102;DHT22;56411;52.964;10.540;2023-05-06T03:43:00;10.10;99.90
16102;DHT22;56411;52.964;10.540;2023-05-06T03:45:27;10.10;99.90
16102;DHT22;56411;52.964;10.540;2023-05-06T03:47:54;10.10;99.90
16102;DHT22;56411;52.964;10.540;2023-05-06T03:50:21;10.00;99.90
16102;DHT22;56411;52.964;10.540;2023-05-06T03:52:48;10.00;99.90
16102;DHT22;56411;52.964;10.540;2023-05-06T03:55:15;10.00;99.90
16102;DHT22;56411;52.964;10.540;2023-05-06T03:57:44;10.00;99.90
16102;DHT22;56411;52.964;10.540;2023-05-06T04:00:12;10.00;99.90
16102;DHT22;56411;52.964;10.540;2023-05-06T04:02:39;10.00;99.90
16102;DHT22;56411;52.964;10.540;2023-05-06T04:05:07;10.00;99.90
16102;DHT22;56411;52.964;10.540;2023-05-06T04:07:34;10.00;99.90
16102;DHT22;56411;52.964;10.540;2023-05-06T04:10:01;9.90;99.90
16102;DHT22;56411;52.964;10.540;2023-05-06T04:12:28;10.00;99.90
16102;DHT22;56411;52.964;10.540;2023-05-06T04:14:57;10.00;99.90
16102;DHT22;56411;52.964;10.540;2023-05-06T04:17:24;10.00;99.90
16102;DHT22;56411;52.964;10.540;2023-05-06T04:19:51;10.00;99.90
16102;DHT22;56411;52.964;10.540;2023-05-06T04:22:18;10.00;99.90
16102;DHT22;56411;52.964;10.540;2023-05-06T04:24:45;10.00;99.90
16102;DHT22;56411;52.964;10.540;2023-05-06T04:27:13;10.00;99.90
16102;DHT22;56411;52.964;10.540;2023-05-06T04:29:40;10.00;99.90
16102;DHT22;56411;52.964;10.540;2023-05-06T04:32:08;10.00;99.90
16102;DHT22;56411;52.964;10.540;2023-05-06T04:34:36;10.00;99.90
16102;DHT22;56411;52.964;10.540;2023-05-06T04:37:03;10.10;99.90
16102;DHT22;56411;52.964;10.540;2023-05-06T04:39:31;10.10;99.90
16102;DHT22;56411;52.964;10.540;2023-05-06T04:41:58;10.10;99.90
16102;DHT22;56411;52.964;10.540;2023-05-06T04:44:26;10.20;99.90
16102;DHT22;56411;52.964;10.540;2023-05-06T04:46:54;10.20;99.90
16102;DHT22;56411;52.964;10.540;2023-05-06T04:49:22;10.20;99.90
16102;DHT22;56411;52.964;10.540;2023-05-06T04:51:49;10.20;99.90
16102;DHT22;56411;52.964;10.540;2023-05-06T04:54:16;10.20;99.90
16102;DHT22;56411;52.964;10.540;2023-05-06T04:56:43;10.20;99.90
16102;DHT22;56411;52.964;10.540;2023-05-06T04:59:10;10.20;99.90
16102;DHT22;56411;52.964;10.540;2023-05-06T05:01:37;10.20;99.90
16102;DHT22;56411;52.964;10.540;2023-05-06T05:04:05;10.30;99.90
16102;DHT22;56411;52.964;10.540;2023-05-06T05:06:33;10.30;99.90
16102;DHT22;56411;52.964;10.540;2023-05-06T05:09:00;10.40;99.90
16102;DHT22;56411;52.964;10.540;2023-05-06T05:11:27;10.40;99.90
16102;DHT22;56411;52.964;10.540;2023-05-06T05:13:54;10.50;99.90
16102;DHT22;56411;52.964;10.540;2023-05-06T05:16:22;10.50;99.90
16102;DHT22;56411;52.964;10.540;2023-05-06T05:18:49;10.60;99.90
16102;DHT22;56411;52.964;10.540;2023-05-06T05:21:16;10.50;99.90
16102;DHT22;56411;52.964;10.540;2023-05-06T05:23:44;10.50;99.90
16102;DHT22;56411;52.964;10.540;2023-05-06T05:26:11;10.70;99.90
16102;DHT22;56411;52.964;10.540;2023-05-06T05:28:38;10.80;99.90
16102;DHT22;56411;52.964;10.540;2023-05-06T05:31:05;10.90;99.90
16102;DHT22;56411;52.964;10.540;2023-05-06T05:33:33;10.90;99.90
16102;DHT22;56411;52.964;10.540;2023-05-06T05:36:00;11.00;99.90
16102;DHT22;56411;52.964;10.540;2023-05-06T05:38:28;11.10;99.90
16102;DHT22;56411;52.964;10.540;2023-05-06T05:40:58;11.20;99.90
16102;DHT22;56411;52.964;10.540;2023-05-06T05:43:26;11.30;99.90
16102;DHT22;56411;52.964;10.540;2023-05-06T05:45:53;11.40;99.90
16102;DHT22;56411;52.964;10.540;2023-05-06T05:48:20;11.50;99.90
16102;DHT22;56411;52.964;10.540;2023-05-06T05:50:47;11.40;99.90
16102;DHT22;56411;52.964;10.540;2023-05-06T05:53:14;11.30;99.90
16102;DHT22;56411;52.964;10.540;2023-05-06T05:55:41;11.40;99.90
16102;DHT22;56411;52.964;10.540;2023-05-06T05:58:10;11.50;99.90
16102;DHT22;56411;52.964;10.540;2023-05-06T06:00:37;11.60;99.90
16102;DHT22;56411;52.964;10.540;2023-05-06T06:03:04;11.60;99.90
16102;DHT22;56411;52.964;10.540;2023-05-06T06:05:31;11.60;99.90
16102;DHT22;56411;52.964;10.540;2023-05-06T06:07:59;11.60;99.90
16102;DHT22;56411;52.964;10.540;2023-05-06T06:10:26;11.60;99.90
16102;DHT22;56411;52.964;10.540;2023-05-06T06:12:53;11.60;99.90
16102;DHT22;56411;52.964;10.540;2023-05-06T06:15:21;11.60;99.90
16102;DHT22;56411;52.964;10.540;2023-05-06T06:17:48;11.50;99.90
16102;DHT22;56411;52.964;10.540;2023-05-06T06:20:21;11.40;99.90
16102;DHT22;56411;52.964;10.540;2023-05-06T06:22:48;11.30;99.90
16102;DHT22;56411;52.964;10.540;2023-05-06T06:25:15;11.40;99.90
16102;DHT22;56411;52.964;10.540;2023-05-06T06:27:42;11.40;99.90
16102;DHT22;56411;52.964;10.540;2023-05-06T06:30:10;11.40;99.90
16102;DHT22;56411;52.964;10.540;2023-05-06T06:32:46;11.40;99.90
16102;DHT22;56411;52.964;10.540;2023-05-06T06:35:14;11.30;99.90
16102;DHT22;56411;52.964;10.540;2023-05-06T06:37:41;11.30;99.90
16102;DHT22;56411;52.964;10.540;2023-05-06T06:40:09;11.30;99.90
16102;DHT22;56411;52.964;10.540;2023-05-06T06:42:37;11.20;99.90
16102;DHT22;56411;52.964;10.540;2023-05-06T06:45:05;11.20;99.90
16102;DHT22;56411;52.964;10.540;2023-05-06T06:47:32;11.20;99.90
16102;DHT22;56411;52.964;10.540;2023-05-06T06:50:01;11.20;99.90
16102;DHT22;56411;52.964;10.540;2023-05-06T06:52:28;11.30;99.90
16102;DHT22;56411;52.964;10.540;2023-05-06T06:54:57;11.30;99.90
16102;DHT22;56411;52.964;10.540;2023-05-06T06:57:24;11.30;99.90
16102;DHT22;56411;52.964;10.540;2023-05-06T06:59:52;11.40;99.90
16102;DHT22;56411;52.964;10.540;2023-05-06T07:02:20;11.30;99.90
16102;DHT22;56411;52.964;10.540;2023-05-06T07:04:47;11.30;99.90
16102;DHT22;56411;52.964;10.540;2023-05-06T07:07:16;11.20;99.90
16102;DHT22;56411;52.964;10.540;2023-05-06T07:09:43;11.20;99.90
16102;DHT22;56411;52.964;10.540;2023-05-06T07:12:10;11.20;99.90
16102;DHT22;56411;52.964;10.540;2023-05-06T07:14:37;11.20;99.90
16102;DHT22;56411;52.964;10.540;2023-05-06T07:17:04;11.30;99.90
16102;DHT22;56411;52.964;10.540;2023-05-06T07:19:31;11.30;99.90
16102;DHT22;56411;52.964;10.540;2023-05-06T07:21:59;11.20;99.90
16102;DHT22;56411;52.964;10.540;2023-05-06T07:24:28;11.30;99.90
16102;DHT22;56411;52.964;10.540;2023-05-06T07:26:55;11.30;99.90
16102;DHT22;56411;52.964;10.540;2023-05-06T07:29:23;11.30;99.90
16102;DHT22;56411;52.964;10.540;2023-05-06T07:31:50;11.20;99.90
16102;DHT22;56411;52.964;10.540;2023-05-06T07:34:18;11.20;99.90
16102;DHT22;56411;52.964;10.540;2023-05-06T07:36:45;11.20;99.90
16102;DHT22;56411;52.964;10.540;2023-05-06T07:39:12;11.20;99.90
16102;DHT22;56411;52.964;10.540;2023-05-06T07:41:41;11.20;99.90
16102;DHT22;56411;52.964;10.540;2023-05-06T07:44:08;11.30;99.90
16102;DHT22;56411;52.964;10.540;2023-05-06T07:46:35;11.40;99.90
16102;DHT22;56411;52.964;10.540;2023-05-06T07:49:02;11.40;99.90
16102;DHT22;56411;52.964;10.540;2023-05-06T07:51:29;11.50;99.90
16102;DHT22;56411;52.964;10.540;2023-05-06T07:53:56;11.50;99.90
16102;DHT22;56411;52.964;10.540;2023-05-06T07:56:23;11.50;99.90
16102;DHT22;56411;52.964;10.540;2023-05-06T07:58:52;11.60;99.90
16102;DHT22;56411;52.964;10.540;2023-05-06T08:01:20;11.60;99.90
16102;DHT22;56411;52.964;10.540;2023-05-06T08:03:47;11.70;99.90
16102;DHT22;56411;52.964;10.540;2023-05-06T08:06:15;11.70;99.90
16102;DHT22;56411;52.964;10.540;2023-05-06T08:08:42;11.80;99.90
16102;DHT22;56411;52.964;10.540;2023-05-06T08:11:11;11.80;99.90
16102;DHT22;56411;52.964;10.540;2023-05-06T08:13:38;11.80;99.90
16102;DHT22;56411;52.964;10.540;2023-05-06T08:16:07;11.80;99.90
16102;DHT22;56411;52.964;10.540;2023-05-06T08:18:34;11.80;99.90
16102;DHT22;56411;52.964;10.540;2023-05-06T08:21:01;11.80;99.90
16102;DHT22;56411;52.964;10.540;2023-05-06T08:23:29;11.80;99.90
16102;DHT22;56411;52.964;10.540;2023-05-06T08:25:58;11.80;99.90
16102;DHT22;56411;52.964;10.540;2023-05-06T08:28:26;11.70;99.90
16102;DHT22;56411;52.964;10.540;2023-05-06T08:30:53;11.60;99.90
16102;DHT22;56411;52.964;10.540;2023-05-06T08:33:22;11.60;99.90
16102;DHT22;56411;52.964;10.540;2023-05-06T08:35:49;11.70;99.90
16102;DHT22;56411;52.964;10.540;2023-05-06T08:38:16;11.80;99.90
16102;DHT22;56411;52.964;10.540;2023-05-06T08:40:44;12.00;99.90
16102;DHT22;56411;52.964;10.540;2023-05-06T08:43:14;12.00;99.90
16102;DHT22;56411;52.964;10.540;2023-05-06T08:45:42;12.00;99.90
16102;DHT22;56411;52.964;10.540;2023-05-06T08:48:09;12.10;99.90
16102;DHT22;56411;52.964;10.540;2023-05-06T08:50:41;12.10;99.90
16102;DHT22;56411;52.964;10.540;2023-05-06T08:53:10;12.20;99.90
16102;DHT22;56411;52.964;10.540;2023-05-06T08:55:39;12.50;99.90
16102;DHT22;56411;52.964;10.540;2023-05-06T08:58:07;12.50;99.90
16102;DHT22;56411;52.964;10.540;2023-05-06T09:00:34;12.60;99.90
16102;DHT22;56411;52.964;10.540;2023-05-06T09:03:02;12.80;99.90
16102;DHT22;56411;52.964;10.540;2023-05-06T09:05:30;12.80;99.90
16102;DHT22;56411;52.964;10.540;2023-05-06T09:07:59;12.80;99.90
16102;DHT22;56411;52.964;10.540;2023-05-06T09:10:31;13.00;99.90
16102;DHT22;56411;52.964;10.540;2023-05-06T09:12:58;13.00;99.90
16102;DHT22;56411;52.964;10.540;2023-05-06T09:15:26;13.10;99.90
16102;DHT22;56411;52.964;10.540;2023-05-06T09:17:54;13.30;99.90
16102;DHT22;56411;52.964;10.540;2023-05-06T09:20:21;13.50;99.90
16102;DHT22;56411;52.964;10.540;2023-05-06T09:22:48;13.40;99.90
16102;DHT22;56411;52.964;10.540;2023-05-06T09:25:18;13.60;99.90
16102;DHT22;56411;52.964;10.540;2023-05-06T09:27:45;13.80;99.90
16102;DHT22;56411;52.964;10.540;2023-05-06T09:30:13;13.90;99.90
16102;DHT22;56411;52.964;10.540;2023-05-06T09:32:40;14.30;99.90
16102;DHT22;56411;52.964;10.540;2023-05-06T09:35:08;14.60;99.90
16102;DHT22;56411;52.964;10.540;2023-05-06T09:37:36;14.80;99.90
16102;DHT22;56411;52.964;10.540;2023-05-06T09:40:06;14.90;99.90
16102;DHT22;56411;52.964;10.540;2023-05-06T09:42:36;14.90;99.90
16102;DHT22;56411;52.964;10.540;2023-05-06T09:45:04;14.80;99.90
16102;DHT22;56411;52.964;10.540;2023-05-06T09:47:34;14.80;99.90
16102;DHT22;56411;52.964;10.540;2023-05-06T09:50:03;14.80;99.90
16102;DHT22;56411;52.964;10.540;2023-05-06T09:52:30;14.70;99.90
16102;DHT22;56411;52.964;10.540;2023-05-06T09:54:57;14.70;99.90
16102;DHT22;56411;52.964;10.540;2023-05-06T09:57:25;14.60;99.90
16102;DHT22;56411;52.964;10.540;2023-05-06T09:59:54;14.80;99.90
16102;DHT22;56411;52.964;10.540;2023-05-06T10:02:23;14.80;99.90
16102;DHT22;56411;52.964;10.540;2023-05-06T10:04:53;14.70;99.90
16102;DHT22;56411;52.964;10.540;2023-05-06T10:07:23;14.70;99.90
16102;DHT22;56411;52.964;10.540;2023-05-06T10:09:53;14.70;99.90
16102;DHT22;56411;52.964;10.540;2023-05-06T10:12:24;14.60;99.90
16102;DHT22;56411;52.964;10.540;2023-05-06T10:14:55;14.50;99.90
16102;DHT22;56411;52.964;10.540;2023-05-06T10:17:25;14.40;99.90
16102;DHT22;56411;52.964;10.540;2023-05-06T10:19:56;14.30;99.90
16102;DHT22;56411;52.964;10.540;2023-05-06T10:22:33;14.20;99.90
16102;DHT22;56411;52.964;10.540;2023-05-06T10:25:08;14.20;99.90
16102;DHT22;56411;52.964;10.540;2023-05-06T10:27:39;14.30;99.90
16102;DHT22;56411;52.964;10.540;2023-05-06T10:30:11;14.20;99.90
16102;DHT22;56411;52.964;10.540;2023-05-06T10:32:43;14.00;99.90
16102;DHT22;56411;52.964;10.540;2023-05-06T10:35:17;13.90;99.90
16102;DHT22;56411;52.964;10.540;2023-05-06T10:37:46;13.70;99.90
16102;DHT22;56411;52.964;10.540;2023-05-06T10:40:14;13.70;99.90
16102;DHT22;56411;52.964;10.540;2023-05-06T10:42:42;13.50;99.90
16102;DHT22;56411;52.964;10.540;2023-05-06T10:45:11;13.40;99.90
16102;DHT22;56411;52.964;10.540;2023-05-06T10:48:07;13.40;99.90
16102;DHT22;56411;52.964;10.540;2023-05-06T10:50:37;13.40;99.90
16102;DHT22;56411;52.964;10.540;2023-05-06T10:53:06;13.40;99.90
16102;DHT22;56411;52.964;10.540;2023-05-06T10:55:36;13.50;99.90
16102;DHT22;56411;52.964;10.540;2023-05-06T10:58:10;13.60;99.90
16102;DHT22;56411;52.964;10.540;2023-05-06T11:00:40;13.80;99.90
16102;DHT22;56411;52.964;10.540;2023-05-06T11:03:10;13.90;99.90
16102;DHT22;56411;52.964;10.540;2023-05-06T11:05:47;13.90;99.90
16102;DHT22;56411;52.964;10.540;2023-05-06T11:08:21;14.00;99.90
16102;DHT22;56411;52.964;10.540;2023-05-06T11:10:49;14.00;99.90
16102;DHT22;56411;52.964;10.540;2023-05-06T11:13:20;14.00;99.90
16102;DHT22;56411;52.964;10.540;2023-05-06T11:15:51;14.10;99.90
16102;DHT22;56411;52.964;10.540;2023-05-06T11:18:48;14.10;99.90
16102;DHT22;56411;52.964;10.540;2023-05-06T11:21:38;14.10;99.90
16102;DHT22;56411;52.964;10.540;2023-05-06T11:24:05;14.00;99.90
16102;DHT22;56411;52.964;10.540;2023-05-06T11:26:33;14.00;99.90
16102;DHT22;56411;52.964;10.540;2023-05-06T11:29:01;14.00;99.90
16102;DHT22;56411;52.964;10.540;2023-05-06T11:31:37;14.10;99.90
16102;DHT22;56411;52.964;10.540;2023-05-06T11:34:07;14.20;99.90
16102;DHT22;56411;52.964;10.540;2023-05-06T11:36:37;14.30;99.90
16102;DHT22;56411;52.964;10.540;2023-05-06T11:39:11;14.30;99.90
16102;DHT22;56411;52.964;10.540;2023-05-06T11:41:39;14.20;99.90
16102;DHT22;56411;52.964;10.540;2023-05-06T11:44:07;14.10;99.90
16102;DHT22;56411;52.964;10.540;2023-05-06T11:46:38;14.00;99.90
16102;DHT22;56411;52.964;10.540;2023-05-06T11:49:05;13.80;99.90
16102;DHT22;56411;52.964;10.540;2023-05-06T11:51:32;13.60;99.90
16102;DHT22;56411;52.964;10.540;2023-05-06T11:54:05;13.40;99.90
16102;DHT22;56411;52.964;10.540;2023-05-06T11:56:46;13.30;99.90
16102;DHT22;56411;52.964;10.540;2023-05-06T11:59:13;13.10;99.90
16102;DHT22;56411;52.964;10.540;2023-05-06T12:01:45;13.00;99.90
16102;DHT22;56411;52.964;10.540;2023-05-06T12:04:12;12.90;99.90
16102;DHT22;56411;52.964;10.540;2023-05-06T12:06:39;12.90;99.90
16102;DHT22;56411;52.964;10.540;2023-05-06T12:09:10;12.90;99.90
16102;DHT22;56411;52.964;10.540;2023-05-06T12:11:37;12.90;99.90
16102;DHT22;56411;52.964;10.540;2023-05-06T12:14:06;12.90;99.90
16102;DHT22;56411;52.964;10.540;2023-05-06T12:16:36;13.00;99.90
16102;DHT22;56411;52.964;10.540;2023-05-06T12:19:05;13.00;99.90
16102;DHT22;56411;52.964;10.540;2023-05-06T12:21:36;12.80;99.90
16102;DHT22;56411;52.964;10.540;2023-05-06T12:24:05;12.70;99.90
16102;DHT22;56411;52.964;10.540;2023-05-06T12:26:45;13.00;99.90
16102;DHT22;56411;52.964;10.540;2023-05-06T12:29:14;12.90;99.90
16102;DHT22;56411;52.964;10.540;2023-05-06T12:31:45;13.00;99.90
16102;DHT22;56411;52.964;10.540;2023-05-06T12:34:14;13.10;99.90
16102;DHT22;56411;52.964;10.540;2023-05-06T12:36:44;13.20;99.90
16102;DHT22;56411;52.964;10.540;2023-05-06T12:39:12;13.30;99.90
16102;DHT22;56411;52.964;10.540;2023-05-06T12:41:40;13.40;99.90
16102;DHT22;56411;52.964;10.540;2023-05-06T12:44:29;13.50;99.90
16102;DHT22;56411;52.964;10.540;2023-05-06T12:46:58;13.60;99.90
16102;DHT22;56411;52.964;10.540;2023-05-06T12:49:27;13.80;99.90
16102;DHT22;56411;52.964;10.540;2023-05-06T12:52:09;13.90;99.90
16102;DHT22;56411;52.964;10.540;2023-05-06T12:54:36;14.00;99.90
16102;DHT22;56411;52.964;10.540;2023-05-06T12:57:04;14.10;99.90
16102;DHT22;56411;52.964;10.540;2023-05-06T12:59:31;14.40;99.90
16102;DHT22;56411;52.964;10.540;2023-05-06T13:01:58;14.90;99.90
16102;DHT22;56411;52.964;10.540;2023-05-06T13:04:27;15.60;99.90
16102;DHT22;56411;52.964;10.540;2023-05-06T13:06:57;15.60;99.90
16102;DHT22;56411;52.964;10.540;2023-05-06T13:09:24;15.80;99.90
16102;DHT22;56411;52.964;10.540;2023-05-06T13:12:11;15.90;99.90
16102;DHT22;56411;52.964;10.540;2023-05-06T13:14:41;16.00;99.90
16102;DHT22;56411;52.964;10.540;2023-05-06T13:17:08;16.10;99.90
16102;DHT22;56411;52.964;10.540;2023-05-06T13:19:37;16.00;99.90
16102;DHT22;56411;52.964;10.540;2023-05-06T13:22:04;15.80;99.90
16102;DHT22;56411;52.964;10.540;2023-05-06T13:24:31;15.60;99.90
16102;DHT22;56411;52.964;10.540;2023-05-06T13:26:58;15.50;99.90
16102;DHT22;56411;52.964;10.540;2023-05-06T13:29:26;15.50;99.90
16102;DHT22;56411;52.964;10.540;2023-05-06T13:31:56;15.50;99.90
16102;DHT22;56411;52.964;10.540;2023-05-06T13:34:23;15.30;99.90
16102;DHT22;56411;52.964;10.540;2023-05-06T13:36:52;15.20;99.90
16102;DHT22;56411;52.964;10.540;2023-05-06T13:39:21;15.10;99.90
16102;DHT22;56411;52.964;10.540;2023-05-06T13:41:48;14.90;99.90
16102;DHT22;56411;52.964;10.540;2023-05-06T13:44:16;14.70;99.90
16102;DHT22;56411;52.964;10.540;2023-05-06T13:46:43;14.60;99.90
16102;DHT22;56411;52.964;10.540;2023-05-06T13:49:10;14.60;99.90
16102;DHT22;56411;52.964;10.540;2023-05-06T13:51:41;14.50;99.90
16102;DHT22;56411;52.964;10.540;2023-05-06T13:54:10;14.30;99.90
16102;DHT22;56411;52.964;10.540;2023-05-06T13:56:37;14.30;99.90
16102;DHT22;56411;52.964;10.540;2023-05-06T13:59:04;14.20;99.90
16102;DHT22;56411;52.964;10.540;2023-05-06T14:01:33;14.10;99.90
16102;DHT22;56411;52.964;10.540;2023-05-06T14:04:00;14.00;99.90
16102;DHT22;56411;52.964;10.540;2023-05-06T14:06:27;13.80;99.90
16102;DHT22;56411;52.964;10.540;2023-05-06T14:08:54;13.80;99.90
16102;DHT22;56411;52.964;10.540;2023-05-06T14:11:23;13.70;99.90
16102;DHT22;56411;52.964;10.540;2023-05-06T14:13:50;13.60;99.90
16102;DHT22;56411;52.964;10.540;2023-05-06T14:16:17;13.60;99.90
16102;DHT22;56411;52.964;10.540;2023-05-06T14:18:44;13.40;99.90
16102;DHT22;56411;52.964;10.540;2023-05-06T14:21:11;13.40;99.90
16102;DHT22;56411;52.964;10.540;2023-05-06T14:23:38;13.60;99.90
16102;DHT22;56411;52.964;10.540;2023-05-06T14:26:07;13.90;99.90
16102;DHT22;56411;52.964;10.540;2023-05-06T14:28:36;14.40;99.90
16102;DHT22;56411;52.964;10.540;2023-05-06T14:31:03;14.90;99.90
16102;DHT22;56411;52.964;10.540;2023-05-06T14:33:36;14.90;99.90
16102;DHT22;56411;52.964;10.540;2023-05-06T14:36:04;14.90;99.90
16102;DHT22;56411;52.964;10.540;2023-05-06T14:38:31;15.20;99.90
16102;DHT22;56411;52.964;10.540;2023-05-06T14:40:58;15.90;99.90
16102;DHT22;56411;52.964;10.540;2023-05-06T14:43:25;16.10;99.90
16102;DHT22;56411;52.964;10.540;2023-05-06T14:45:54;15.80;99.90
16102;DHT22;56411;52.964;10.540;2023-05-06T14:48:21;15.90;99.90
16102;DHT22;56411;52.964;10.540;2023-05-06T14:50:49;16.20;99.90
16102;DHT22;56411;52.964;10.540;2023-05-06T14:53:16;16.10;99.90
16102;DHT22;56411;52.964;10.540;2023-05-06T14:55:43;15.90;99.90
16102;DHT22;56411;52.964;10.540;2023-05-06T14:58:11;15.90;99.90
16102;DHT22;56411;52.964;10.540;2023-05-06T15:00:38;15.40;99.90
16102;DHT22;56411;52.964;10.540;2023-05-06T15:03:07;14.90;99.90
16102;DHT22;56411;52.964;10.540;2023-05-06T15:05:34;14.40;99.90
16102;DHT22;56411;52.964;10.540;2023-05-06T15:08:05;13.70;99.90
16102;DHT22;56411;52.964;10.540;2023-05-06T15:10:32;13.20;99.90
16102;DHT22;56411;52.964;10.540;2023-05-06T15:12:59;12.90;99.90
16102;DHT22;56411;52.964;10.540;2023-05-06T15:15:27;12.70;99.90
16102;DHT22;56411;52.964;10.540;2023-05-06T15:17:54;12.80;99.90
16102;DHT22;56411;52.964;10.540;2023-05-06T15:20:23;12.90;99.90
16102;DHT22;56411;52.964;10.540;2023-05-06T15:22:50;12.90;99.90
16102;DHT22;56411;52.964;10.540;2023-05-06T15:25:18;12.90;99.90